createdAt,value
2022-09-12T03:59:09.892Z,0.373
2022-09-12T04:04:10.069Z,0.747
2022-09-12T04:09:21.246Z,2.614
2022-09-12T04:14:10.257Z,7.096
2022-09-12T04:19:10.368Z,19.048
2022-09-12T04:24:10.447Z,45.94
2022-09-12T04:29:10.556Z,99.351
2022-09-12T04:34:10.716Z,186.75
2022-09-12T04:39:10.786Z,282.366
2022-09-12T04:44:10.862Z,412.344
2022-09-12T04:49:11.010Z,597.6
2022-09-12T04:54:11.135Z,902.376
2022-09-12T04:59:11.233Z,1308.744
2022-09-12T05:04:11.347Z,1733.04
2022-09-12T05:09:28.052Z,2103.552
2022-09-12T05:14:11.612Z,2545.776
2022-09-12T05:19:11.780Z,2784.816
2022-09-12T05:24:11.717Z,3035.808
2022-09-12T05:29:11.834Z,2641.392
2022-09-12T05:34:11.960Z,3681.216
2022-09-12T05:39:12.064Z,3872.448
2022-09-12T05:44:12.142Z,4231.008
2022-09-12T05:49:12.262Z,5115.456
2022-09-12T05:54:12.366Z,6215.04
2022-09-12T05:58:58.114Z,7075.584
2022-09-12T06:05:04.956Z,7697.088
2022-09-12T06:08:09.338Z,7888.32
2022-09-12T06:10:54.776Z,6884.352
2022-09-12T06:14:00.019Z,8844.48
2022-09-12T06:17:03.811Z,9800.64
2022-09-12T06:22:28.403Z,10135.296
2022-09-12T06:25:16.580Z,11617.344
2022-09-12T06:30:16.660Z,11760.768
2022-09-12T06:35:16.729Z,11808.576
2022-09-12T06:38:17.945Z,9848.448
2022-09-12T06:44:00.186Z,10039.68
2022-09-12T06:49:11.459Z,13195.008
2022-09-12T06:53:43.817Z,15681.024
2022-09-12T06:57:22.072Z,19218.816
2022-09-12T07:01:24.981Z,18836.352
2022-09-12T07:04:31.736Z,14055.552
2022-09-12T07:08:35.587Z,12430.08
2022-09-12T07:11:12.132Z,22374.144
2022-09-12T07:14:27.547Z,29832.192
2022-09-12T07:18:08.002Z,28876.032
2022-09-12T07:21:05.974Z,11952
2022-09-12T07:27:47.122Z,8940.096
2022-09-12T07:31:05.691Z,10708.992
2022-09-12T07:35:30.725Z,13768.704
2022-09-12T07:40:45.053Z,12908.16
2022-09-12T07:44:12.267Z,17019.648
2022-09-12T07:47:08.392Z,20748.672
2022-09-12T07:49:41.431Z,22087.296
2022-09-12T07:52:56.598Z,18836.352
2022-09-12T07:55:31.781Z,19983.744
2022-09-12T07:59:51.210Z,26772.48
2022-09-12T08:02:00.778Z,32700.672
2022-09-12T08:04:32.546Z,26198.784
2022-09-12T08:07:07.640Z,18931.968
2022-09-12T08:09:38.261Z,15107.328
2022-09-12T08:16:04.355Z,8701.056
2022-09-12T08:19:54.484Z,10039.68
2022-09-12T08:22:51.474Z,12621.312
2022-09-12T08:26:22.482Z,39011.328
2022-09-12T08:29:21.033Z,39011.328
2022-09-12T08:31:59.217Z,39202.56
2022-09-12T08:35:53.818Z,38820.096
2022-09-12T08:38:26.952Z,41688.576
2022-09-12T08:42:01.231Z,42835.968
2022-09-12T08:44:35.746Z,40732.416
2022-09-12T08:47:15.975Z,47808
2022-09-12T08:51:10.643Z,50867.712
2022-09-12T08:54:07.736Z,17306.496
2022-09-12T08:58:01.132Z,21417.984
2022-09-12T09:00:52.987Z,52780.032
2022-09-12T09:03:33.132Z,24477.696
2022-09-12T09:07:54.302Z,14055.552
2022-09-12T09:13:00.094Z,12143.232
2022-09-12T09:17:45.804Z,11234.88
2022-09-12T09:22:06.240Z,11999.808
2022-09-12T09:24:53.132Z,16159.104
2022-09-12T09:27:40.276Z,53544.96
2022-09-12T09:31:16.624Z,55839.744
2022-09-12T09:36:17.544Z,59664.384
2022-09-12T09:39:01.934Z,44174.592
2022-09-12T09:41:35.751Z,27728.64
2022-09-12T09:45:08.412Z,58516.992
2022-09-12T09:47:40.319Z,34421.76
2022-09-12T09:50:14.130Z,13577.472
2022-09-12T09:55:13.242Z,14246.784
2022-09-12T09:58:48.535Z,53927.424
2022-09-12T10:01:41.975Z,54692.352
2022-09-12T10:04:41.484Z,55457.28
2022-09-12T10:07:28.874Z,56987.136
2022-09-12T10:10:02.029Z,60046.848
2022-09-12T10:13:23.208Z,46469.376
2022-09-12T10:16:49.744Z,65401.344
2022-09-12T10:19:22.826Z,64253.952
2022-09-12T10:23:03.262Z,50485.248
2022-09-12T10:25:47.794Z,58134.528
2022-09-12T10:28:48.930Z,42453.504
2022-09-12T10:31:33.545Z,16924.032
2022-09-12T10:34:21.849Z,17210.88
2022-09-12T10:36:58.965Z,18262.656
2022-09-12T10:39:57.796Z,58516.992
2022-09-12T10:42:47.262Z,54692.352
2022-09-12T10:48:39.374Z,57752.064
2022-09-12T10:51:48.098Z,55839.744
2022-09-12T10:54:46.748Z,57752.064
2022-09-12T10:57:45.364Z,58899.456
2022-09-12T11:00:54.040Z,60046.848
2022-09-12T11:03:32.194Z,57369.6
2022-09-12T11:06:05.278Z,58899.456
2022-09-12T11:08:36.930Z,55074.816
2022-09-12T11:11:14.325Z,31362.048
2022-09-12T11:13:47.056Z,19314.432
2022-09-12T11:16:19.862Z,55839.744
2022-09-12T11:19:05.234Z,54692.352
2022-09-12T11:21:53.071Z,58516.992
2022-09-12T11:24:31.249Z,58899.456
2022-09-12T11:27:14.554Z,58899.456
2022-09-12T11:31:14.382Z,58134.528
2022-09-12T11:34:42.326Z,54309.888
2022-09-12T11:38:39.421Z,53544.96
2022-09-12T11:41:53.275Z,57369.6
2022-09-12T11:44:41.677Z,58516.992
2022-09-12T11:47:14.738Z,60429.312
2022-09-12T11:49:53.854Z,53544.96
2022-09-12T11:52:52.508Z,58516.992
2022-09-12T11:55:29.197Z,53927.424
2022-09-12T11:58:03.641Z,55074.816
2022-09-12T12:00:38.966Z,19888.128
2022-09-12T12:03:22.730Z,54309.888
2022-09-12T12:05:56.001Z,21896.064
2022-09-12T12:08:47.133Z,22852.224
2022-09-12T12:12:28.387Z,54692.352
2022-09-12T12:15:26.958Z,53544.96
2022-09-12T12:18:07.247Z,54309.888
2022-09-12T12:20:55.586Z,53162.496
2022-09-12T12:23:28.641Z,50485.248
2022-09-12T12:26:20.323Z,50102.784
2022-09-12T12:28:53.469Z,53544.96
2022-09-12T12:32:14.051Z,52780.032
2022-09-12T12:35:22.818Z,50485.248
2022-09-12T12:37:53.387Z,49720.32
2022-09-12T12:44:54.708Z,51250.176
2022-09-12T12:47:27.836Z,51250.176
2022-09-12T12:50:21.197Z,33656.832
2022-09-12T12:53:03.104Z,46086.912
2022-09-12T12:55:56.583Z,47808
2022-09-12T12:59:52.970Z,48764.16
2022-09-12T13:02:26.295Z,26007.552
2022-09-12T13:05:06.364Z,41306.112
2022-09-12T13:07:49.623Z,41497.344
2022-09-12T13:10:37.719Z,40349.952
2022-09-12T13:13:31.282Z,39776.256
2022-09-12T13:16:04.442Z,38628.864
2022-09-12T13:18:42.546Z,34230.528
2022-09-12T13:21:27.918Z,29640.96
2022-09-12T13:24:15.168Z,36334.08
2022-09-12T13:27:49.424Z,36907.776
2022-09-12T13:31:47.318Z,39776.256
2022-09-12T13:34:22.545Z,37863.936
2022-09-12T13:37:29.081Z,37672.704
2022-09-12T13:41:03.316Z,37290.24
2022-09-12T13:44:22.254Z,36142.848
2022-09-12T13:49:13.035Z,33274.368
2022-09-12T13:52:26.849Z,30788.352
2022-09-12T13:54:59.309Z,30788.352
2022-09-12T13:57:47.745Z,28684.8
2022-09-12T14:00:45.781Z,26963.712
2022-09-12T14:03:18.799Z,25625.088
2022-09-12T14:06:29.668Z,22565.376
2022-09-12T14:09:43.488Z,22852.224
2022-09-12T14:13:38.116Z,23617.152
2022-09-12T14:18:03.350Z,23617.152
2022-09-12T14:21:42.702Z,23712.768
2022-09-12T14:25:32.280Z,22565.376
2022-09-12T14:29:11.546Z,20653.056
2022-09-12T14:32:25.453Z,19696.896
2022-09-12T14:37:41.649Z,17880.192
2022-09-12T14:43:26.839Z,16350.336
2022-09-12T14:49:13.760Z,15202.944
2022-09-12T14:52:53.069Z,14916.096
2022-09-12T14:57:58.010Z,14246.784
2022-09-12T15:00:31.119Z,13864.32
2022-09-12T15:07:38.032Z,12621.312
2022-09-12T15:10:46.789Z,12143.232
2022-09-12T15:13:50.508Z,11617.344
2022-09-12T15:19:10.769Z,10661.184
2022-09-12T15:21:43.957Z,10230.912
2022-09-12T15:24:27.154Z,9800.64
2022-09-12T15:27:51.159Z,9322.56
2022-09-12T15:33:01.216Z,8653.248
2022-09-12T15:35:49.587Z,8366.4
2022-09-12T15:41:16.011Z,7744.896
2022-09-12T15:46:25.791Z,7171.2
2022-09-12T15:51:25.866Z,6549.696
2022-09-12T15:56:25.985Z,6215.04
2022-09-12T16:01:26.104Z,5665.248
2022-09-12T16:04:14.453Z,5378.4
2022-09-12T16:10:47.218Z,4876.416
2022-09-12T16:14:21.412Z,4685.184
2022-09-12T16:19:26.065Z,4517.856
2022-09-12T16:25:16.347Z,4422.24
2022-09-12T16:30:16.529Z,4231.008
2022-09-12T16:35:16.554Z,3800.736
2022-09-12T16:40:16.790Z,3537.792
2022-09-12T16:45:16.819Z,3489.984
2022-09-12T16:52:24.240Z,3131.424
2022-09-12T16:57:24.228Z,2904.336
2022-09-12T17:02:24.412Z,2868.48
2022-09-12T17:07:24.603Z,2414.304
2022-09-12T17:12:24.540Z,1972.08
2022-09-12T17:17:24.685Z,1147.392
2022-09-12T17:20:33.501Z,866.52
2022-09-12T17:23:52.370Z,579.672
2022-09-12T17:29:17.232Z,298.8
2022-09-12T17:34:17.327Z,195.714
2022-09-12T17:39:17.405Z,165.087
2022-09-12T17:44:17.503Z,62.001
2022-09-12T17:49:17.674Z,22.036
2022-09-12T17:54:17.738Z,8.59
2022-09-12T17:56:50.872Z,5.229
2022-09-12T17:59:34.090Z,3.361
2022-09-12T18:05:04.288Z,1.494
2022-09-12T18:09:46.534Z,0.373
2022-09-12T18:14:46.616Z,0
2022-09-12T19:22:28.926Z,0.373
2022-09-12T19:27:11.905Z,0
